Terminal Aerodrome Forecast
Issued by NWS

Home | Current Version | Previous Version | Text Only | Print | Product List | Glossary On
Versions: 1 2 3 4 5 6 7 8 9 10 11 12 13 14 15
000
FTUS45 KTFX 261120
TAFLWT
TAF
KLWT 261120Z 2612/2712 VRB06KT P6SM FEW180
     FM262200 26007KT P6SM VCTS SCT060CB BKN100 PROB30 2700/2703
      VRB20G30KT -TSRA BKN050CB
     FM270400 VRB06KT P6SM BKN100=

USA.gov is the U.S. government's official web portal to all federal, state and local government web resources and services.